sensor_id;sensor_type;location;lat;lon;timestamp;P1;durP1;ratioP1;P2;durP2;ratioP2
48161;SDS011;33950;48.154;16.316;2022-07-23T00:01:20;14.32;;;9.40;;
48161;SDS011;33950;48.154;16.316;2022-07-23T00:03:46;11.35;;;8.82;;
48161;SDS011;33950;48.154;16.316;2022-07-23T00:06:12;10.40;;;9.25;;
48161;SDS011;33950;48.154;16.316;2022-07-23T00:08:38;11.18;;;8.98;;
48161;SDS011;33950;48.154;16.316;2022-07-23T00:11:04;10.88;;;8.52;;
48161;SDS011;33950;48.154;16.316;2022-07-23T00:13:30;14.00;;;8.48;;
48161;SDS011;33950;48.154;16.316;2022-07-23T00:15:57;15.82;;;9.60;;
48161;SDS011;33950;48.154;16.316;2022-07-23T00:18:23;9.95;;;8.40;;
48161;SDS011;33950;48.154;16.316;2022-07-23T00:20:49;15.27;;;8.75;;
48161;SDS011;33950;48.154;16.316;2022-07-23T00:23:14;10.75;;;8.70;;
48161;SDS011;33950;48.154;16.316;2022-07-23T00:25:40;16.67;;;8.90;;
48161;SDS011;33950;48.154;16.316;2022-07-23T00:28:06;18.83;;;8.75;;
48161;SDS011;33950;48.154;16.316;2022-07-23T00:30:32;16.48;;;9.90;;
48161;SDS011;33950;48.154;16.316;2022-07-23T00:33:00;14.07;;;10.10;;
48161;SDS011;33950;48.154;16.316;2022-07-23T00:35:29;11.63;;;8.95;;
48161;SDS011;33950;48.154;16.316;2022-07-23T00:37:56;16.17;;;8.82;;
48161;SDS011;33950;48.154;16.316;2022-07-23T00:40:22;21.38;;;8.70;;
48161;SDS011;33950;48.154;16.316;2022-07-23T00:42:48;10.38;;;8.90;;
48161;SDS011;33950;48.154;16.316;2022-07-23T00:45:14;10.57;;;8.68;;
48161;SDS011;33950;48.154;16.316;2022-07-23T00:47:40;12.48;;;8.85;;
48161;SDS011;33950;48.154;16.316;2022-07-23T00:50:08;11.73;;;8.35;;
48161;SDS011;33950;48.154;16.316;2022-07-23T00:52:36;33.78;;;8.10;;
48161;SDS011;33950;48.154;16.316;2022-07-23T00:55:03;14.00;;;8.52;;
48161;SDS011;33950;48.154;16.316;2022-07-23T00:57:29;15.00;;;8.90;;
48161;SDS011;33950;48.154;16.316;2022-07-23T00:59:55;16.83;;;8.48;;
48161;SDS011;33950;48.154;16.316;2022-07-23T01:02:23;12.95;;;7.53;;
48161;SDS011;33950;48.154;16.316;2022-07-23T01:04:48;13.10;;;7.65;;
48161;SDS011;33950;48.154;16.316;2022-07-23T01:07:16;11.60;;;7.22;;
48161;SDS011;33950;48.154;16.316;2022-07-23T01:09:43;20.67;;;8.52;;
48161;SDS011;33950;48.154;16.316;2022-07-23T01:12:09;19.02;;;8.05;;
48161;SDS011;33950;48.154;16.316;2022-07-23T01:14:35;14.90;;;8.40;;
48161;SDS011;33950;48.154;16.316;2022-07-23T01:17:01;10.00;;;7.75;;
48161;SDS011;33950;48.154;16.316;2022-07-23T01:19:27;17.40;;;7.45;;
48161;SDS011;33950;48.154;16.316;2022-07-23T01:21:53;10.68;;;7.57;;
48161;SDS011;33950;48.154;16.316;2022-07-23T01:24:23;15.40;;;8.18;;
48161;SDS011;33950;48.154;16.316;2022-07-23T01:26:49;8.80;;;7.25;;
48161;SDS011;33950;48.154;16.316;2022-07-23T01:29:16;16.33;;;7.80;;
48161;SDS011;33950;48.154;16.316;2022-07-23T01:31:42;12.60;;;7.65;;
48161;SDS011;33950;48.154;16.316;2022-07-23T01:34:08;16.50;;;7.95;;
48161;SDS011;33950;48.154;16.316;2022-07-23T01:36:34;11.13;;;8.73;;
48161;SDS011;33950;48.154;16.316;2022-07-23T01:39:00;16.77;;;8.65;;
48161;SDS011;33950;48.154;16.316;2022-07-23T01:41:28;13.55;;;8.60;;
48161;SDS011;33950;48.154;16.316;2022-07-23T01:43:55;11.20;;;9.63;;
48161;SDS011;33950;48.154;16.316;2022-07-23T01:46:20;15.07;;;9.80;;
48161;SDS011;33950;48.154;16.316;2022-07-23T01:48:46;13.10;;;9.90;;
48161;SDS011;33950;48.154;16.316;2022-07-23T01:51:12;10.70;;;9.60;;
48161;SDS011;33950;48.154;16.316;2022-07-23T01:53:38;12.98;;;10.50;;
48161;SDS011;33950;48.154;16.316;2022-07-23T01:56:04;20.08;;;10.85;;
48161;SDS011;33950;48.154;16.316;2022-07-23T01:58:31;13.65;;;11.07;;
48161;SDS011;33950;48.154;16.316;2022-07-23T02:00:57;14.05;;;10.88;;
48161;SDS011;33950;48.154;16.316;2022-07-23T02:03:23;15.57;;;10.10;;
48161;SDS011;33950;48.154;16.316;2022-07-23T02:05:50;15.70;;;10.63;;
48161;SDS011;33950;48.154;16.316;2022-07-23T02:08:16;20.23;;;10.25;;
48161;SDS011;33950;48.154;16.316;2022-07-23T02:10:42;13.25;;;10.23;;
48161;SDS011;33950;48.154;16.316;2022-07-23T02:13:09;14.48;;;10.57;;
48161;SDS011;33950;48.154;16.316;2022-07-23T02:15:36;16.00;;;10.68;;
48161;SDS011;33950;48.154;16.316;2022-07-23T02:18:02;12.35;;;10.05;;
48161;SDS011;33950;48.154;16.316;2022-07-23T02:20:28;16.92;;;10.48;;
48161;SDS011;33950;48.154;16.316;2022-07-23T02:22:54;13.15;;;10.38;;
48161;SDS011;33950;48.154;16.316;2022-07-23T02:25:20;16.88;;;10.32;;
48161;SDS011;33950;48.154;16.316;2022-07-23T02:27:45;13.93;;;11.30;;
48161;SDS011;33950;48.154;16.316;2022-07-23T02:30:11;12.77;;;10.23;;
48161;SDS011;33950;48.154;16.316;2022-07-23T02:32:39;16.70;;;9.98;;
48161;SDS011;33950;48.154;16.316;2022-07-23T02:35:06;15.10;;;11.15;;
48161;SDS011;33950;48.154;16.316;2022-07-23T02:37:32;21.67;;;10.52;;
48161;SDS011;33950;48.154;16.316;2022-07-23T02:39:58;15.43;;;10.25;;
48161;SDS011;33950;48.154;16.316;2022-07-23T02:42:24;16.83;;;10.07;;
48161;SDS011;33950;48.154;16.316;2022-07-23T02:44:50;19.00;;;10.23;;
48161;SDS011;33950;48.154;16.316;2022-07-23T02:47:16;12.38;;;10.88;;
48161;SDS011;33950;48.154;16.316;2022-07-23T02:49:43;12.88;;;10.60;;
48161;SDS011;33950;48.154;16.316;2022-07-23T02:52:09;16.63;;;10.57;;
48161;SDS011;33950;48.154;16.316;2022-07-23T02:54:35;16.48;;;10.30;;
48161;SDS011;33950;48.154;16.316;2022-07-23T02:57:01;15.73;;;10.38;;
48161;SDS011;33950;48.154;16.316;2022-07-23T02:59:27;15.52;;;10.57;;
48161;SDS011;33950;48.154;16.316;2022-07-23T03:01:53;10.75;;;9.48;;
48161;SDS011;33950;48.154;16.316;2022-07-23T03:04:19;11.32;;;9.95;;
48161;SDS011;33950;48.154;16.316;2022-07-23T03:06:46;12.88;;;10.50;;
48161;SDS011;33950;48.154;16.316;2022-07-23T03:09:12;12.18;;;10.38;;
48161;SDS011;33950;48.154;16.316;2022-07-23T03:11:37;14.68;;;10.15;;
48161;SDS011;33950;48.154;16.316;2022-07-23T03:14:03;13.13;;;10.10;;
48161;SDS011;33950;48.154;16.316;2022-07-23T03:16:29;14.68;;;10.57;;
48161;SDS011;33950;48.154;16.316;2022-07-23T03:18:55;14.43;;;10.55;;
48161;SDS011;33950;48.154;16.316;2022-07-23T03:21:21;14.77;;;10.95;;
48161;SDS011;33950;48.154;16.316;2022-07-23T03:23:48;22.05;;;11.25;;
48161;SDS011;33950;48.154;16.316;2022-07-23T03:26:14;11.82;;;9.63;;
48161;SDS011;33950;48.154;16.316;2022-07-23T03:28:40;15.38;;;10.18;;
48161;SDS011;33950;48.154;16.316;2022-07-23T03:31:06;18.55;;;11.85;;
48161;SDS011;33950;48.154;16.316;2022-07-23T03:33:31;12.38;;;11.02;;
48161;SDS011;33950;48.154;16.316;2022-07-23T03:35:57;13.88;;;10.10;;
48161;SDS011;33950;48.154;16.316;2022-07-23T03:38:23;13.73;;;10.77;;
48161;SDS011;33950;48.154;16.316;2022-07-23T03:40:50;13.13;;;10.23;;
48161;SDS011;33950;48.154;16.316;2022-07-23T03:43:16;14.75;;;10.50;;
48161;SDS011;33950;48.154;16.316;2022-07-23T03:45:42;11.93;;;10.73;;
48161;SDS011;33950;48.154;16.316;2022-07-23T03:48:08;12.80;;;10.98;;
48161;SDS011;33950;48.154;16.316;2022-07-23T03:50:34;17.70;;;10.75;;
48161;SDS011;33950;48.154;16.316;2022-07-23T03:53:00;13.48;;;10.60;;
48161;SDS011;33950;48.154;16.316;2022-07-23T03:55:25;17.15;;;11.50;;
48161;SDS011;33950;48.154;16.316;2022-07-23T03:57:53;20.05;;;11.10;;
48161;SDS011;33950;48.154;16.316;2022-07-23T04:00:19;11.77;;;10.48;;
48161;SDS011;33950;48.154;16.316;2022-07-23T04:02:44;14.07;;;11.85;;
48161;SDS011;33950;48.154;16.316;2022-07-23T04:05:10;15.70;;;11.35;;
48161;SDS011;33950;48.154;16.316;2022-07-23T04:07:36;14.38;;;11.02;;
48161;SDS011;33950;48.154;16.316;2022-07-23T04:10:02;12.90;;;10.63;;
48161;SDS011;33950;48.154;16.316;2022-07-23T04:12:28;14.15;;;11.07;;
48161;SDS011;33950;48.154;16.316;2022-07-23T04:14:56;15.00;;;10.68;;
48161;SDS011;33950;48.154;16.316;2022-07-23T04:17:21;14.88;;;11.30;;
48161;SDS011;33950;48.154;16.316;2022-07-23T04:19:47;14.55;;;11.32;;
48161;SDS011;33950;48.154;16.316;2022-07-23T04:22:13;13.07;;;11.00;;
48161;SDS011;33950;48.154;16.316;2022-07-23T04:24:39;18.63;;;10.90;;
48161;SDS011;33950;48.154;16.316;2022-07-23T04:27:05;14.35;;;10.75;;
48161;SDS011;33950;48.154;16.316;2022-07-23T04:29:31;13.50;;;10.57;;
48161;SDS011;33950;48.154;16.316;2022-07-23T04:31:58;28.83;;;12.75;;
48161;SDS011;33950;48.154;16.316;2022-07-23T04:34:24;14.43;;;11.68;;
48161;SDS011;33950;48.154;16.316;2022-07-23T04:36:51;16.38;;;10.15;;
48161;SDS011;33950;48.154;16.316;2022-07-23T04:39:17;14.27;;;10.60;;
48161;SDS011;33950;48.154;16.316;2022-07-23T04:41:43;17.25;;;11.05;;
48161;SDS011;33950;48.154;16.316;2022-07-23T04:44:09;18.27;;;10.93;;
48161;SDS011;33950;48.154;16.316;2022-07-23T04:46:35;18.70;;;11.32;;
48161;SDS011;33950;48.154;16.316;2022-07-23T04:49:02;15.77;;;10.45;;
48161;SDS011;33950;48.154;16.316;2022-07-23T04:51:28;17.65;;;12.40;;
48161;SDS011;33950;48.154;16.316;2022-07-23T04:53:54;20.92;;;10.73;;
48161;SDS011;33950;48.154;16.316;2022-07-23T04:56:20;16.45;;;10.18;;
48161;SDS011;33950;48.154;16.316;2022-07-23T04:58:46;12.52;;;9.80;;
48161;SDS011;33950;48.154;16.316;2022-07-23T05:01:11;15.50;;;9.85;;
48161;SDS011;33950;48.154;16.316;2022-07-23T05:03:37;14.90;;;9.02;;
48161;SDS011;33950;48.154;16.316;2022-07-23T05:06:05;15.93;;;11.07;;
48161;SDS011;33950;48.154;16.316;2022-07-23T05:08:31;13.77;;;9.13;;
48161;SDS011;33950;48.154;16.316;2022-07-23T05:10:57;13.45;;;8.63;;
48161;SDS011;33950;48.154;16.316;2022-07-23T05:13:22;15.10;;;8.57;;
48161;SDS011;33950;48.154;16.316;2022-07-23T05:15:48;9.93;;;8.75;;
48161;SDS011;33950;48.154;16.316;2022-07-23T05:18:14;11.13;;;9.10;;
48161;SDS011;33950;48.154;16.316;2022-07-23T05:20:40;13.90;;;8.57;;
48161;SDS011;33950;48.154;16.316;2022-07-23T05:23:07;11.52;;;9.18;;
48161;SDS011;33950;48.154;16.316;2022-07-23T05:25:33;12.75;;;8.75;;
48161;SDS011;33950;48.154;16.316;2022-07-23T05:27:59;11.75;;;8.70;;
48161;SDS011;33950;48.154;16.316;2022-07-23T05:30:25;12.77;;;8.23;;
48161;SDS011;33950;48.154;16.316;2022-07-23T05:32:50;15.57;;;8.10;;
48161;SDS011;33950;48.154;16.316;2022-07-23T05:35:16;12.35;;;8.18;;
48161;SDS011;33950;48.154;16.316;2022-07-23T05:37:42;10.68;;;8.43;;
48161;SDS011;33950;48.154;16.316;2022-07-23T05:40:10;11.88;;;8.88;;
48161;SDS011;33950;48.154;16.316;2022-07-23T05:42:37;13.52;;;8.98;;
48161;SDS011;33950;48.154;16.316;2022-07-23T05:45:04;12.25;;;8.82;;
48161;SDS011;33950;48.154;16.316;2022-07-23T05:47:38;8.55;;;7.30;;
48161;SDS011;33950;48.154;16.316;2022-07-23T05:50:05;11.07;;;7.88;;
48161;SDS011;33950;48.154;16.316;2022-07-23T05:52:31;16.13;;;8.85;;
48161;SDS011;33950;48.154;16.316;2022-07-23T05:54:57;13.18;;;7.88;;
48161;SDS011;33950;48.154;16.316;2022-07-23T05:57:24;8.68;;;7.78;;
48161;SDS011;33950;48.154;16.316;2022-07-23T05:59:50;9.00;;;8.10;;
48161;SDS011;33950;48.154;16.316;2022-07-23T06:02:16;9.82;;;7.53;;
48161;SDS011;33950;48.154;16.316;2022-07-23T06:04:42;8.88;;;7.47;;
48161;SDS011;33950;48.154;16.316;2022-07-23T06:07:08;7.80;;;6.75;;
48161;SDS011;33950;48.154;16.316;2022-07-23T06:09:33;9.80;;;7.25;;
48161;SDS011;33950;48.154;16.316;2022-07-23T06:11:59;13.55;;;7.43;;
48161;SDS011;33950;48.154;16.316;2022-07-23T06:14:26;10.70;;;8.18;;
48161;SDS011;33950;48.154;16.316;2022-07-23T06:16:52;9.35;;;8.13;;
48161;SDS011;33950;48.154;16.316;2022-07-23T06:19:18;14.60;;;7.57;;
48161;SDS011;33950;48.154;16.316;2022-07-23T06:21:44;12.73;;;8.02;;
48161;SDS011;33950;48.154;16.316;2022-07-23T06:24:09;11.10;;;8.05;;
48161;SDS011;33950;48.154;16.316;2022-07-23T06:26:35;20.92;;;8.80;;
48161;SDS011;33950;48.154;16.316;2022-07-23T06:29:01;9.13;;;7.68;;
48161;SDS011;33950;48.154;16.316;2022-07-23T06:31:28;12.48;;;7.28;;
48161;SDS011;33950;48.154;16.316;2022-07-23T06:33:54;10.60;;;8.02;;
48161;SDS011;33950;48.154;16.316;2022-07-23T06:36:20;8.43;;;7.30;;
48161;SDS011;33950;48.154;16.316;2022-07-23T06:38:46;15.63;;;7.65;;
48161;SDS011;33950;48.154;16.316;2022-07-23T06:41:11;9.50;;;6.90;;
48161;SDS011;33950;48.154;16.316;2022-07-23T06:43:37;8.80;;;7.32;;
48161;SDS011;33950;48.154;16.316;2022-07-23T06:46:03;8.80;;;7.22;;
48161;SDS011;33950;48.154;16.316;2022-07-23T06:48:31;8.32;;;7.10;;
48161;SDS011;33950;48.154;16.316;2022-07-23T06:50:59;7.28;;;6.53;;
48161;SDS011;33950;48.154;16.316;2022-07-23T06:53:25;10.77;;;6.75;;
48161;SDS011;33950;48.154;16.316;2022-07-23T06:55:51;7.97;;;6.75;;
48161;SDS011;33950;48.154;16.316;2022-07-23T06:58:17;6.80;;;6.05;;
48161;SDS011;33950;48.154;16.316;2022-07-23T07:00:44;10.18;;;6.03;;
48161;SDS011;33950;48.154;16.316;2022-07-23T07:03:10;9.50;;;5.72;;
48161;SDS011;33950;48.154;16.316;2022-07-23T07:05:37;14.15;;;5.03;;
48161;SDS011;33950;48.154;16.316;2022-07-23T07:08:04;10.90;;;4.93;;
48161;SDS011;33950;48.154;16.316;2022-07-23T07:10:30;7.22;;;5.63;;
48161;SDS011;33950;48.154;16.316;2022-07-23T07:12:56;9.23;;;5.03;;
48161;SDS011;33950;48.154;16.316;2022-07-23T07:15:22;9.00;;;5.35;;
48161;SDS011;33950;48.154;16.316;2022-07-23T07:17:48;5.82;;;5.03;;
48161;SDS011;33950;48.154;16.316;2022-07-23T07:20:14;14.45;;;4.97;;
48161;SDS011;33950;48.154;16.316;2022-07-23T07:22:41;11.27;;;4.55;;
48161;SDS011;33950;48.154;16.316;2022-07-23T07:25:07;15.32;;;4.90;;
48161;SDS011;33950;48.154;16.316;2022-07-23T07:27:34;8.57;;;4.60;;
48161;SDS011;33950;48.154;16.316;2022-07-23T07:30:00;8.25;;;4.72;;
48161;SDS011;33950;48.154;16.316;2022-07-23T07:32:25;8.77;;;4.70;;
48161;SDS011;33950;48.154;16.316;2022-07-23T07:34:51;12.60;;;4.75;;
48161;SDS011;33950;48.154;16.316;2022-07-23T07:37:17;10.00;;;4.75;;
48161;SDS011;33950;48.154;16.316;2022-07-23T07:39:44;9.80;;;4.30;;
48161;SDS011;33950;48.154;16.316;2022-07-23T07:42:10;5.78;;;4.55;;
48161;SDS011;33950;48.154;16.316;2022-07-23T07:44:36;7.22;;;4.68;;
48161;SDS011;33950;48.154;16.316;2022-07-23T07:47:02;7.82;;;4.85;;
48161;SDS011;33950;48.154;16.316;2022-07-23T07:49:28;8.38;;;4.28;;
48161;SDS011;33950;48.154;16.316;2022-07-23T07:51:53;6.75;;;3.85;;
48161;SDS011;33950;48.154;16.316;2022-07-23T07:54:19;5.50;;;4.20;;
48161;SDS011;33950;48.154;16.316;2022-07-23T07:56:46;7.97;;;4.38;;
48161;SDS011;33950;48.154;16.316;2022-07-23T07:59:13;6.50;;;3.85;;
48161;SDS011;33950;48.154;16.316;2022-07-23T08:01:39;13.02;;;4.60;;
48161;SDS011;33950;48.154;16.316;2022-07-23T08:04:05;7.22;;;4.60;;
48161;SDS011;33950;48.154;16.316;2022-07-23T08:06:31;4.65;;;4.07;;
48161;SDS011;33950;48.154;16.316;2022-07-23T08:08:57;10.43;;;4.95;;
48161;SDS011;33950;48.154;16.316;2022-07-23T08:11:23;9.93;;;4.75;;
48161;SDS011;33950;48.154;16.316;2022-07-23T08:13:50;9.23;;;4.55;;
48161;SDS011;33950;48.154;16.316;2022-07-23T08:16:16;9.43;;;4.68;;
48161;SDS011;33950;48.154;16.316;2022-07-23T08:18:41;6.60;;;4.55;;
48161;SDS011;33950;48.154;16.316;2022-07-23T08:21:07;8.40;;;5.07;;
48161;SDS011;33950;48.154;16.316;2022-07-23T08:23:33;8.75;;;4.95;;
48161;SDS011;33950;48.154;16.316;2022-07-23T08:25:59;18.00;;;4.88;;
48161;SDS011;33950;48.154;16.316;2022-07-23T08:28:26;10.23;;;4.63;;
48161;SDS011;33950;48.154;16.316;2022-07-23T08:30:53;7.90;;;4.80;;
48161;SDS011;33950;48.154;16.316;2022-07-23T08:33:19;5.68;;;4.82;;
48161;SDS011;33950;48.154;16.316;2022-07-23T08:35:45;6.68;;;5.07;;
48161;SDS011;33950;48.154;16.316;2022-07-23T08:38:13;5.53;;;5.03;;
48161;SDS011;33950;48.154;16.316;2022-07-23T08:40:42;5.60;;;5.03;;
48161;SDS011;33950;48.154;16.316;2022-07-23T08:43:10;5.90;;;4.93;;
48161;SDS011;33950;48.154;16.316;2022-07-23T08:45:38;8.55;;;5.65;;
48161;SDS011;33950;48.154;16.316;2022-07-23T08:48:07;7.43;;;5.40;;
48161;SDS011;33950;48.154;16.316;2022-07-23T08:50:36;13.00;;;6.07;;
48161;SDS011;33950;48.154;16.316;2022-07-23T08:53:02;6.97;;;4.95;;
48161;SDS011;33950;48.154;16.316;2022-07-23T08:55:32;10.82;;;5.15;;
48161;SDS011;33950;48.154;16.316;2022-07-23T08:57:58;5.93;;;5.32;;
48161;SDS011;33950;48.154;16.316;2022-07-23T09:00:24;6.47;;;5.50;;
48161;SDS011;33950;48.154;16.316;2022-07-23T09:02:50;5.60;;;4.60;;
48161;SDS011;33950;48.154;16.316;2022-07-23T09:05:18;7.13;;;5.53;;
48161;SDS011;33950;48.154;16.316;2022-07-23T09:10:42;6.47;;;5.50;;
48161;SDS011;33950;48.154;16.316;2022-07-23T09:13:22;10.20;;;5.05;;
48161;SDS011;33950;48.154;16.316;2022-07-23T09:15:49;11.27;;;5.38;;
48161;SDS011;33950;48.154;16.316;2022-07-23T09:18:16;8.10;;;5.13;;
48161;SDS011;33950;48.154;16.316;2022-07-23T09:20:44;6.93;;;5.45;;
48161;SDS011;33950;48.154;16.316;2022-07-23T09:23:10;6.57;;;5.07;;
48161;SDS011;33950;48.154;16.316;2022-07-23T09:25:36;6.10;;;4.60;;
48161;SDS011;33950;48.154;16.316;2022-07-23T09:28:02;8.80;;;5.95;;
48161;SDS011;33950;48.154;16.316;2022-07-23T09:30:29;10.43;;;5.60;;
48161;SDS011;33950;48.154;16.316;2022-07-23T09:33:03;9.70;;;5.32;;
48161;SDS011;33950;48.154;16.316;2022-07-23T09:35:44;9.23;;;5.18;;
48161;SDS011;33950;48.154;16.316;2022-07-23T09:38:12;7.22;;;5.25;;
48161;SDS011;33950;48.154;16.316;2022-07-23T09:40:38;6.72;;;5.78;;
48161;SDS011;33950;48.154;16.316;2022-07-23T09:43:04;9.13;;;5.30;;
48161;SDS011;33950;48.154;16.316;2022-07-23T09:45:30;6.07;;;4.95;;
48161;SDS011;33950;48.154;16.316;2022-07-23T09:48:09;7.45;;;5.35;;
48161;SDS011;33950;48.154;16.316;2022-07-23T09:50:36;8.25;;;5.70;;
48161;SDS011;33950;48.154;16.316;2022-07-23T09:53:03;6.50;;;5.15;;
48161;SDS011;33950;48.154;16.316;2022-07-23T09:55:31;8.20;;;5.30;;
48161;SDS011;33950;48.154;16.316;2022-07-23T09:58:03;6.35;;;5.45;;
48161;SDS011;33950;48.154;16.316;2022-07-23T10:00:31;9.52;;;5.00;;
48161;SDS011;33950;48.154;16.316;2022-07-23T10:02:57;8.45;;;5.47;;
48161;SDS011;33950;48.154;16.316;2022-07-23T10:05:24;9.63;;;6.45;;
48161;SDS011;33950;48.154;16.316;2022-07-23T10:07:51;12.75;;;6.47;;
48161;SDS011;33950;48.154;16.316;2022-07-23T10:10:19;10.25;;;6.53;;
48161;SDS011;33950;48.154;16.316;2022-07-23T10:12:46;10.57;;;6.78;;
48161;SDS011;33950;48.154;16.316;2022-07-23T10:15:15;7.30;;;5.55;;
48161;SDS011;33950;48.154;16.316;2022-07-23T10:17:41;10.00;;;5.50;;
48161;SDS011;33950;48.154;16.316;2022-07-23T10:20:07;7.90;;;6.13;;
48161;SDS011;33950;48.154;16.316;2022-07-23T10:22:33;9.07;;;6.78;;
48161;SDS011;33950;48.154;16.316;2022-07-23T10:25:08;7.25;;;6.38;;
48161;SDS011;33950;48.154;16.316;2022-07-23T10:27:42;8.38;;;6.57;;
48161;SDS011;33950;48.154;16.316;2022-07-23T10:30:16;13.63;;;5.93;;
48161;SDS011;33950;48.154;16.316;2022-07-23T10:32:45;6.90;;;6.18;;
48161;SDS011;33950;48.154;16.316;2022-07-23T10:35:26;8.90;;;6.10;;
48161;SDS011;33950;48.154;16.316;2022-07-23T10:37:59;9.40;;;6.18;;
48161;SDS011;33950;48.154;16.316;2022-07-23T10:40:28;8.80;;;6.68;;
48161;SDS011;33950;48.154;16.316;2022-07-23T10:42:58;9.23;;;6.45;;
48161;SDS011;33950;48.154;16.316;2022-07-23T10:45:28;7.57;;;6.63;;
48161;SDS011;33950;48.154;16.316;2022-07-23T10:47:55;9.38;;;6.20;;
48161;SDS011;33950;48.154;16.316;2022-07-23T10:50:36;9.80;;;5.93;;
48161;SDS011;33950;48.154;16.316;2022-07-23T10:53:12;9.82;;;6.80;;
48161;SDS011;33950;48.154;16.316;2022-07-23T10:55:44;14.73;;;6.05;;
48161;SDS011;33950;48.154;16.316;2022-07-23T10:58:17;11.80;;;6.63;;
48161;SDS011;33950;48.154;16.316;2022-07-23T11:00:44;9.90;;;6.47;;
48161;SDS011;33950;48.154;16.316;2022-07-23T11:05:57;9.27;;;5.88;;
48161;SDS011;33950;48.154;16.316;2022-07-23T11:08:23;7.10;;;6.00;;
48161;SDS011;33950;48.154;16.316;2022-07-23T11:10:53;9.52;;;6.75;;
48161;SDS011;33950;48.154;16.316;2022-07-23T11:13:35;12.48;;;6.80;;
48161;SDS011;33950;48.154;16.316;2022-07-23T11:16:07;12.63;;;6.30;;
48161;SDS011;33950;48.154;16.316;2022-07-23T11:21:47;9.80;;;6.10;;
48161;SDS011;33950;48.154;16.316;2022-07-23T11:24:15;11.43;;;6.75;;
48161;SDS011;33950;48.154;16.316;2022-07-23T11:26:58;7.90;;;6.30;;
48161;SDS011;33950;48.154;16.316;2022-07-23T11:29:48;13.65;;;6.47;;
48161;SDS011;33950;48.154;16.316;2022-07-23T11:35:18;7.95;;;6.47;;
48161;SDS011;33950;48.154;16.316;2022-07-23T11:37:46;8.00;;;6.57;;
48161;SDS011;33950;48.154;16.316;2022-07-23T11:40:13;7.72;;;6.95;;
48161;SDS011;33950;48.154;16.316;2022-07-23T11:42:50;8.63;;;7.25;;
48161;SDS011;33950;48.154;16.316;2022-07-23T11:45:22;11.82;;;7.80;;
48161;SDS011;33950;48.154;16.316;2022-07-23T11:47:48;9.52;;;7.60;;
48161;SDS011;33950;48.154;16.316;2022-07-23T11:50:14;9.52;;;7.30;;
48161;SDS011;33950;48.154;16.316;2022-07-23T11:52:40;8.50;;;6.95;;
48161;SDS011;33950;48.154;16.316;2022-07-23T11:55:07;9.88;;;7.32;;
48161;SDS011;33950;48.154;16.316;2022-07-23T11:57:34;8.02;;;6.97;;
48161;SDS011;33950;48.154;16.316;2022-07-23T12:00:02;9.85;;;7.00;;
48161;SDS011;33950;48.154;16.316;2022-07-23T12:02:32;10.95;;;7.00;;
48161;SDS011;33950;48.154;16.316;2022-07-23T12:04:58;9.05;;;6.72;;
48161;SDS011;33950;48.154;16.316;2022-07-23T12:07:25;9.63;;;7.05;;
48161;SDS011;33950;48.154;16.316;2022-07-23T12:09:53;11.05;;;6.53;;
48161;SDS011;33950;48.154;16.316;2022-07-23T12:12:19;9.00;;;6.70;;
48161;SDS011;33950;48.154;16.316;2022-07-23T12:14:49;8.50;;;6.60;;
48161;SDS011;33950;48.154;16.316;2022-07-23T12:17:17;9.10;;;6.88;;
48161;SDS011;33950;48.154;16.316;2022-07-23T12:19:44;9.52;;;6.30;;
48161;SDS011;33950;48.154;16.316;2022-07-23T12:22:11;10.13;;;6.68;;
48161;SDS011;33950;48.154;16.316;2022-07-23T12:24:55;10.68;;;6.25;;
48161;SDS011;33950;48.154;16.316;2022-07-23T12:27:26;11.13;;;6.00;;
48161;SDS011;33950;48.154;16.316;2022-07-23T12:29:52;10.52;;;5.63;;
48161;SDS011;33950;48.154;16.316;2022-07-23T12:32:18;9.40;;;6.22;;
48161;SDS011;33950;48.154;16.316;2022-07-23T12:34:47;6.03;;;5.43;;
48161;SDS011;33950;48.154;16.316;2022-07-23T12:37:25;9.35;;;6.07;;
48161;SDS011;33950;48.154;16.316;2022-07-23T12:39:52;6.35;;;5.43;;
48161;SDS011;33950;48.154;16.316;2022-07-23T12:42:20;5.70;;;4.97;;
48161;SDS011;33950;48.154;16.316;2022-07-23T12:45:03;5.70;;;4.88;;
48161;SDS011;33950;48.154;16.316;2022-07-23T12:53:09;4.70;;;4.20;;
48161;SDS011;33950;48.154;16.316;2022-07-23T12:55:38;8.32;;;4.03;;
48161;SDS011;33950;48.154;16.316;2022-07-23T12:58:10;3.85;;;3.20;;
48161;SDS011;33950;48.154;16.316;2022-07-23T13:00:58;5.68;;;3.30;;
48161;SDS011;33950;48.154;16.316;2022-07-23T13:03:30;6.88;;;3.67;;
48161;SDS011;33950;48.154;16.316;2022-07-23T13:05:58;5.05;;;3.47;;
48161;SDS011;33950;48.154;16.316;2022-07-23T13:08:29;3.47;;;2.65;;
48161;SDS011;33950;48.154;16.316;2022-07-23T13:10:57;3.40;;;2.75;;
48161;SDS011;33950;48.154;16.316;2022-07-23T13:13:23;7.18;;;2.90;;
48161;SDS011;33950;48.154;16.316;2022-07-23T13:15:52;3.35;;;2.92;;
48161;SDS011;33950;48.154;16.316;2022-07-23T13:18:18;3.80;;;2.55;;
48161;SDS011;33950;48.154;16.316;2022-07-23T13:20:45;5.60;;;2.70;;
48161;SDS011;33950;48.154;16.316;2022-07-23T13:23:12;2.75;;;2.38;;
48161;SDS011;33950;48.154;16.316;2022-07-23T13:25:39;5.75;;;3.00;;
48161;SDS011;33950;48.154;16.316;2022-07-23T13:28:05;10.18;;;4.75;;
48161;SDS011;33950;48.154;16.316;2022-07-23T13:30:31;3.38;;;3.05;;
48161;SDS011;33950;48.154;16.316;2022-07-23T13:32:57;4.10;;;2.65;;
48161;SDS011;33950;48.154;16.316;2022-07-23T13:35:23;4.05;;;3.13;;
48161;SDS011;33950;48.154;16.316;2022-07-23T13:37:49;4.97;;;2.97;;
48161;SDS011;33950;48.154;16.316;2022-07-23T13:40:15;3.22;;;2.67;;
48161;SDS011;33950;48.154;16.316;2022-07-23T13:42:43;3.42;;;2.30;;
48161;SDS011;33950;48.154;16.316;2022-07-23T13:45:10;3.15;;;2.30;;
48161;SDS011;33950;48.154;16.316;2022-07-23T13:47:36;3.83;;;2.35;;
48161;SDS011;33950;48.154;16.316;2022-07-23T13:50:02;5.00;;;2.40;;
48161;SDS011;33950;48.154;16.316;2022-07-23T13:52:29;3.95;;;2.60;;
48161;SDS011;33950;48.154;16.316;2022-07-23T13:54:54;3.92;;;2.47;;
48161;SDS011;33950;48.154;16.316;2022-07-23T13:57:20;3.08;;;2.35;;
48161;SDS011;33950;48.154;16.316;2022-07-23T13:59:50;3.97;;;2.72;;
48161;SDS011;33950;48.154;16.316;2022-07-23T14:02:18;4.03;;;3.13;;
48161;SDS011;33950;48.154;16.316;2022-07-23T14:04:44;8.27;;;2.65;;
48161;SDS011;33950;48.154;16.316;2022-07-23T14:07:10;3.45;;;2.10;;
48161;SDS011;33950;48.154;16.316;2022-07-23T14:09:36;3.45;;;2.70;;
48161;SDS011;33950;48.154;16.316;2022-07-23T14:12:02;3.03;;;2.72;;
48161;SDS011;33950;48.154;16.316;2022-07-23T14:14:28;3.45;;;2.78;;
48161;SDS011;33950;48.154;16.316;2022-07-23T14:16:56;6.38;;;2.67;;
48161;SDS011;33950;48.154;16.316;2022-07-23T14:19:21;5.20;;;3.35;;
48161;SDS011;33950;48.154;16.316;2022-07-23T14:21:48;3.92;;;3.10;;
48161;SDS011;33950;48.154;16.316;2022-07-23T14:24:14;3.75;;;3.00;;
48161;SDS011;33950;48.154;16.316;2022-07-23T14:26:40;3.22;;;2.50;;
48161;SDS011;33950;48.154;16.316;2022-07-23T14:29:06;3.35;;;2.50;;
48161;SDS011;33950;48.154;16.316;2022-07-23T14:31:32;6.97;;;2.92;;
48161;SDS011;33950;48.154;16.316;2022-07-23T14:33:59;6.07;;;2.88;;
48161;SDS011;33950;48.154;16.316;2022-07-23T14:36:25;7.95;;;3.75;;
48161;SDS011;33950;48.154;16.316;2022-07-23T14:38:51;4.00;;;2.80;;
48161;SDS011;33950;48.154;16.316;2022-07-23T14:41:17;6.60;;;3.22;;
48161;SDS011;33950;48.154;16.316;2022-07-23T14:43:43;6.72;;;3.55;;